sensor_id;sensor_type;location;lat;lon;timestamp;P1;durP1;ratioP1;P2;durP2;ratioP2
70825;SDS011;58446;41.490;22.098;2023-11-21T00:00:29;81.72;;;46.05;;
70825;SDS011;58446;41.490;22.098;2023-11-21T00:02:55;79.57;;;44.33;;
70825;SDS011;58446;41.490;22.098;2023-11-21T00:05:20;83.72;;;44.70;;
70825;SDS011;58446;41.490;22.098;2023-11-21T00:07:48;66.93;;;40.05;;
70825;SDS011;58446;41.490;22.098;2023-11-21T00:10:15;73.07;;;41.87;;
70825;SDS011;58446;41.490;22.098;2023-11-21T00:12:41;72.65;;;40.95;;
70825;SDS011;58446;41.490;22.098;2023-11-21T00:15:07;63.47;;;39.10;;
70825;SDS011;58446;41.490;22.098;2023-11-21T00:17:44;70.37;;;40.07;;
70825;SDS011;58446;41.490;22.098;2023-11-21T00:20:13;68.15;;;39.75;;
70825;SDS011;58446;41.490;22.098;2023-11-21T00:22:40;69.65;;;40.55;;
70825;SDS011;58446;41.490;22.098;2023-11-21T00:25:07;63.22;;;38.13;;
70825;SDS011;58446;41.490;22.098;2023-11-21T00:27:39;54.50;;;33.07;;
70825;SDS011;58446;41.490;22.098;2023-11-21T00:30:05;55.42;;;33.88;;
70825;SDS011;58446;41.490;22.098;2023-11-21T00:32:31;54.58;;;33.28;;
70825;SDS011;58446;41.490;22.098;2023-11-21T00:34:57;54.43;;;33.67;;
70825;SDS011;58446;41.490;22.098;2023-11-21T00:37:24;58.95;;;35.47;;
70825;SDS011;58446;41.490;22.098;2023-11-21T00:39:50;59.70;;;35.35;;
70825;SDS011;58446;41.490;22.098;2023-11-21T00:42:16;54.97;;;32.43;;
70825;SDS011;58446;41.490;22.098;2023-11-21T00:44:42;56.73;;;32.80;;
70825;SDS011;58446;41.490;22.098;2023-11-21T00:47:07;50.43;;;31.53;;
70825;SDS011;58446;41.490;22.098;2023-11-21T00:49:33;57.67;;;31.95;;
70825;SDS011;58446;41.490;22.098;2023-11-21T00:51:59;52.33;;;31.20;;
70825;SDS011;58446;41.490;22.098;2023-11-21T00:54:24;47.25;;;28.58;;
70825;SDS011;58446;41.490;22.098;2023-11-21T00:56:50;50.20;;;28.07;;
70825;SDS011;58446;41.490;22.098;2023-11-21T00:59:15;43.92;;;27.85;;
70825;SDS011;58446;41.490;22.098;2023-11-21T01:01:41;52.27;;;29.97;;
70825;SDS011;58446;41.490;22.098;2023-11-21T01:04:07;74.32;;;37.30;;
70825;SDS011;58446;41.490;22.098;2023-11-21T01:06:33;60.47;;;35.57;;
70825;SDS011;58446;41.490;22.098;2023-11-21T01:09:00;48.03;;;29.20;;
70825;SDS011;58446;41.490;22.098;2023-11-21T01:11:29;63.00;;;35.65;;
70825;SDS011;58446;41.490;22.098;2023-11-21T01:13:55;69.23;;;39.23;;
70825;SDS011;58446;41.490;22.098;2023-11-21T01:16:21;62.20;;;33.25;;
70825;SDS011;58446;41.490;22.098;2023-11-21T01:18:47;57.15;;;33.03;;
70825;SDS011;58446;41.490;22.098;2023-11-21T01:21:13;58.03;;;33.50;;
70825;SDS011;58446;41.490;22.098;2023-11-21T01:23:39;61.55;;;34.25;;
70825;SDS011;58446;41.490;22.098;2023-11-21T01:26:04;65.63;;;36.33;;
70825;SDS011;58446;41.490;22.098;2023-11-21T01:28:30;62.55;;;35.63;;
70825;SDS011;58446;41.490;22.098;2023-11-21T01:30:56;62.33;;;33.27;;
70825;SDS011;58446;41.490;22.098;2023-11-21T01:33:22;67.47;;;35.28;;
70825;SDS011;58446;41.490;22.098;2023-11-21T01:35:50;76.38;;;38.25;;
70825;SDS011;58446;41.490;22.098;2023-11-21T01:38:18;68.50;;;37.70;;
70825;SDS011;58446;41.490;22.098;2023-11-21T01:40:43;75.22;;;37.60;;
70825;SDS011;58446;41.490;22.098;2023-11-21T01:43:09;66.82;;;36.95;;
70825;SDS011;58446;41.490;22.098;2023-11-21T01:45:35;71.27;;;36.70;;
70825;SDS011;58446;41.490;22.098;2023-11-21T01:48:01;66.88;;;34.67;;
70825;SDS011;58446;41.490;22.098;2023-11-21T01:50:28;62.47;;;35.90;;
70825;SDS011;58446;41.490;22.098;2023-11-21T01:52:54;57.73;;;30.83;;
70825;SDS011;58446;41.490;22.098;2023-11-21T01:55:20;55.58;;;31.52;;
70825;SDS011;58446;41.490;22.098;2023-11-21T01:57:47;59.97;;;33.67;;
70825;SDS011;58446;41.490;22.098;2023-11-21T02:00:13;58.38;;;30.83;;
70825;SDS011;58446;41.490;22.098;2023-11-21T02:02:45;52.83;;;32.00;;
70825;SDS011;58446;41.490;22.098;2023-11-21T02:05:11;51.67;;;29.40;;
70825;SDS011;58446;41.490;22.098;2023-11-21T02:07:39;50.58;;;27.95;;
70825;SDS011;58446;41.490;22.098;2023-11-21T02:10:06;52.47;;;31.42;;
70825;SDS011;58446;41.490;22.098;2023-11-21T02:12:33;50.60;;;30.17;;
70825;SDS011;58446;41.490;22.098;2023-11-21T02:15:00;45.88;;;28.15;;
70825;SDS011;58446;41.490;22.098;2023-11-21T02:17:28;41.00;;;25.07;;
70825;SDS011;58446;41.490;22.098;2023-11-21T02:19:53;33.65;;;21.95;;
70825;SDS011;58446;41.490;22.098;2023-11-21T02:22:19;38.60;;;24.47;;
70825;SDS011;58446;41.490;22.098;2023-11-21T02:24:45;35.90;;;22.98;;
70825;SDS011;58446;41.490;22.098;2023-11-21T02:27:12;35.72;;;23.05;;
70825;SDS011;58446;41.490;22.098;2023-11-21T02:29:38;36.70;;;23.58;;
70825;SDS011;58446;41.490;22.098;2023-11-21T02:32:04;38.03;;;23.83;;
70825;SDS011;58446;41.490;22.098;2023-11-21T02:34:30;35.78;;;22.98;;
70825;SDS011;58446;41.490;22.098;2023-11-21T02:36:56;41.05;;;24.08;;
70825;SDS011;58446;41.490;22.098;2023-11-21T02:39:22;35.13;;;22.73;;
70825;SDS011;58446;41.490;22.098;2023-11-21T02:41:49;36.95;;;23.55;;
70825;SDS011;58446;41.490;22.098;2023-11-21T02:44:15;37.28;;;24.05;;
70825;SDS011;58446;41.490;22.098;2023-11-21T02:46:41;45.20;;;26.93;;
70825;SDS011;58446;41.490;22.098;2023-11-21T02:49:06;38.42;;;24.15;;
70825;SDS011;58446;41.490;22.098;2023-11-21T02:51:35;41.47;;;24.93;;
70825;SDS011;58446;41.490;22.098;2023-11-21T02:54:03;37.47;;;22.00;;
70825;SDS011;58446;41.490;22.098;2023-11-21T02:56:32;36.38;;;21.98;;
70825;SDS011;58446;41.490;22.098;2023-11-21T02:58:58;32.95;;;21.30;;
70825;SDS011;58446;41.490;22.098;2023-11-21T03:01:25;31.23;;;20.77;;
70825;SDS011;58446;41.490;22.098;2023-11-21T03:03:52;32.87;;;21.27;;
70825;SDS011;58446;41.490;22.098;2023-11-21T03:06:18;33.40;;;20.58;;
70825;SDS011;58446;41.490;22.098;2023-11-21T03:08:45;36.78;;;22.15;;
70825;SDS011;58446;41.490;22.098;2023-11-21T03:11:11;30.67;;;20.33;;
70825;SDS011;58446;41.490;22.098;2023-11-21T03:13:38;31.63;;;20.90;;
70825;SDS011;58446;41.490;22.098;2023-11-21T03:16:06;36.03;;;21.90;;
70825;SDS011;58446;41.490;22.098;2023-11-21T03:18:36;37.78;;;21.60;;
70825;SDS011;58446;41.490;22.098;2023-11-21T03:21:03;35.30;;;21.63;;
70825;SDS011;58446;41.490;22.098;2023-11-21T03:23:29;34.42;;;21.55;;
70825;SDS011;58446;41.490;22.098;2023-11-21T03:25:56;33.10;;;21.70;;
70825;SDS011;58446;41.490;22.098;2023-11-21T03:28:21;38.13;;;23.07;;
70825;SDS011;58446;41.490;22.098;2023-11-21T03:30:48;39.10;;;21.70;;
70825;SDS011;58446;41.490;22.098;2023-11-21T03:33:14;36.47;;;24.17;;
70825;SDS011;58446;41.490;22.098;2023-11-21T03:35:40;37.00;;;23.08;;
70825;SDS011;58446;41.490;22.098;2023-11-21T03:38:07;35.72;;;22.75;;
70825;SDS011;58446;41.490;22.098;2023-11-21T03:40:33;30.60;;;20.07;;
70825;SDS011;58446;41.490;22.098;2023-11-21T03:42:58;32.83;;;21.75;;
70825;SDS011;58446;41.490;22.098;2023-11-21T03:45:24;33.97;;;21.97;;
70825;SDS011;58446;41.490;22.098;2023-11-21T03:47:50;38.53;;;23.17;;
70825;SDS011;58446;41.490;22.098;2023-11-21T03:50:15;42.63;;;25.73;;
70825;SDS011;58446;41.490;22.098;2023-11-21T03:52:41;35.72;;;21.92;;
70825;SDS011;58446;41.490;22.098;2023-11-21T03:55:07;39.65;;;24.20;;
70825;SDS011;58446;41.490;22.098;2023-11-21T03:57:33;34.45;;;21.48;;
70825;SDS011;58446;41.490;22.098;2023-11-21T03:59:59;27.33;;;17.67;;
70825;SDS011;58446;41.490;22.098;2023-11-21T04:02:25;27.67;;;17.38;;
70825;SDS011;58446;41.490;22.098;2023-11-21T04:04:52;28.70;;;19.83;;
70825;SDS011;58446;41.490;22.098;2023-11-21T04:07:17;28.55;;;19.63;;
70825;SDS011;58446;41.490;22.098;2023-11-21T04:09:43;29.23;;;19.33;;
70825;SDS011;58446;41.490;22.098;2023-11-21T04:12:08;28.88;;;18.65;;
70825;SDS011;58446;41.490;22.098;2023-11-21T04:14:35;28.23;;;18.37;;
70825;SDS011;58446;41.490;22.098;2023-11-21T04:17:00;28.80;;;18.50;;
70825;SDS011;58446;41.490;22.098;2023-11-21T04:19:26;28.88;;;19.75;;
70825;SDS011;58446;41.490;22.098;2023-11-21T04:21:52;26.30;;;18.20;;
70825;SDS011;58446;41.490;22.098;2023-11-21T04:24:18;31.80;;;18.58;;
70825;SDS011;58446;41.490;22.098;2023-11-21T04:26:44;29.17;;;18.97;;
70825;SDS011;58446;41.490;22.098;2023-11-21T04:29:10;34.92;;;21.90;;
70825;SDS011;58446;41.490;22.098;2023-11-21T04:31:35;32.23;;;20.37;;
70825;SDS011;58446;41.490;22.098;2023-11-21T04:34:01;41.70;;;22.88;;
70825;SDS011;58446;41.490;22.098;2023-11-21T04:36:29;36.83;;;21.38;;
70825;SDS011;58446;41.490;22.098;2023-11-21T04:38:56;34.27;;;20.70;;
70825;SDS011;58446;41.490;22.098;2023-11-21T04:41:22;34.03;;;20.80;;
70825;SDS011;58446;41.490;22.098;2023-11-21T04:43:47;33.80;;;20.97;;
70825;SDS011;58446;41.490;22.098;2023-11-21T04:46:14;37.40;;;22.25;;
70825;SDS011;58446;41.490;22.098;2023-11-21T04:48:40;39.00;;;22.83;;
70825;SDS011;58446;41.490;22.098;2023-11-21T04:51:06;40.30;;;23.40;;
70825;SDS011;58446;41.490;22.098;2023-11-21T04:53:32;37.70;;;23.53;;
70825;SDS011;58446;41.490;22.098;2023-11-21T04:55:57;37.30;;;23.13;;
70825;SDS011;58446;41.490;22.098;2023-11-21T04:58:24;35.65;;;23.00;;
70825;SDS011;58446;41.490;22.098;2023-11-21T05:00:49;37.63;;;22.17;;
70825;SDS011;58446;41.490;22.098;2023-11-21T05:03:15;35.92;;;23.27;;
70825;SDS011;58446;41.490;22.098;2023-11-21T05:05:42;34.93;;;22.27;;
70825;SDS011;58446;41.490;22.098;2023-11-21T05:08:08;36.53;;;22.83;;
70825;SDS011;58446;41.490;22.098;2023-11-21T05:10:35;29.98;;;20.48;;
70825;SDS011;58446;41.490;22.098;2023-11-21T05:13:03;33.25;;;21.55;;
70825;SDS011;58446;41.490;22.098;2023-11-21T05:15:29;32.53;;;20.80;;
70825;SDS011;58446;41.490;22.098;2023-11-21T05:17:55;32.90;;;21.95;;
70825;SDS011;58446;41.490;22.098;2023-11-21T05:20:25;32.35;;;21.80;;
70825;SDS011;58446;41.490;22.098;2023-11-21T05:22:50;32.50;;;21.50;;
70825;SDS011;58446;41.490;22.098;2023-11-21T05:25:16;32.07;;;21.07;;
70825;SDS011;58446;41.490;22.098;2023-11-21T05:27:45;32.50;;;20.67;;
70825;SDS011;58446;41.490;22.098;2023-11-21T05:30:12;32.00;;;19.27;;
70825;SDS011;58446;41.490;22.098;2023-11-21T05:32:39;28.98;;;20.42;;
70825;SDS011;58446;41.490;22.098;2023-11-21T05:35:08;30.43;;;20.63;;
70825;SDS011;58446;41.490;22.098;2023-11-21T05:37:39;30.90;;;19.23;;
70825;SDS011;58446;41.490;22.098;2023-11-21T05:40:05;31.77;;;19.83;;
70825;SDS011;58446;41.490;22.098;2023-11-21T05:42:32;32.93;;;19.60;;
70825;SDS011;58446;41.490;22.098;2023-11-21T05:44:58;29.15;;;19.55;;
70825;SDS011;58446;41.490;22.098;2023-11-21T05:47:24;49.05;;;23.15;;
70825;SDS011;58446;41.490;22.098;2023-11-21T05:49:53;36.90;;;22.30;;
70825;SDS011;58446;41.490;22.098;2023-11-21T05:52:19;45.63;;;26.93;;
70825;SDS011;58446;41.490;22.098;2023-11-21T05:54:45;49.67;;;28.75;;
70825;SDS011;58446;41.490;22.098;2023-11-21T05:57:11;42.23;;;23.10;;
70825;SDS011;58446;41.490;22.098;2023-11-21T05:59:37;48.20;;;28.27;;
70825;SDS011;58446;41.490;22.098;2023-11-21T06:02:02;39.87;;;24.47;;
70825;SDS011;58446;41.490;22.098;2023-11-21T06:04:28;41.22;;;24.40;;
70825;SDS011;58446;41.490;22.098;2023-11-21T06:06:55;44.95;;;28.85;;
70825;SDS011;58446;41.490;22.098;2023-11-21T06:09:21;57.93;;;32.20;;
70825;SDS011;58446;41.490;22.098;2023-11-21T06:11:47;58.20;;;35.90;;
70825;SDS011;58446;41.490;22.098;2023-11-21T06:14:13;61.40;;;36.70;;
70825;SDS011;58446;41.490;22.098;2023-11-21T06:16:40;90.20;;;47.55;;
70825;SDS011;58446;41.490;22.098;2023-11-21T06:19:05;88.33;;;47.67;;
70825;SDS011;58446;41.490;22.098;2023-11-21T06:21:31;96.25;;;49.97;;
70825;SDS011;58446;41.490;22.098;2023-11-21T06:23:57;89.13;;;47.15;;
70825;SDS011;58446;41.490;22.098;2023-11-21T06:26:23;83.93;;;50.43;;
70825;SDS011;58446;41.490;22.098;2023-11-21T06:28:50;82.07;;;46.80;;
70825;SDS011;58446;41.490;22.098;2023-11-21T06:31:16;85.70;;;46.40;;
70825;SDS011;58446;41.490;22.098;2023-11-21T06:33:42;75.90;;;45.37;;
70825;SDS011;58446;41.490;22.098;2023-11-21T06:36:08;85.10;;;46.80;;
70825;SDS011;58446;41.490;22.098;2023-11-21T06:38:36;86.13;;;49.08;;
70825;SDS011;58446;41.490;22.098;2023-11-21T06:41:02;69.87;;;42.13;;
70825;SDS011;58446;41.490;22.098;2023-11-21T06:43:29;71.35;;;41.75;;
70825;SDS011;58446;41.490;22.098;2023-11-21T06:45:56;80.50;;;44.83;;
70825;SDS011;58446;41.490;22.098;2023-11-21T06:48:22;73.10;;;44.13;;
70825;SDS011;58446;41.490;22.098;2023-11-21T06:50:48;75.40;;;42.90;;
70825;SDS011;58446;41.490;22.098;2023-11-21T06:53:14;71.93;;;43.63;;
70825;SDS011;58446;41.490;22.098;2023-11-21T06:55:40;63.95;;;40.08;;
70825;SDS011;58446;41.490;22.098;2023-11-21T06:58:05;66.87;;;39.53;;
70825;SDS011;58446;41.490;22.098;2023-11-21T07:00:31;63.88;;;37.58;;
70825;SDS011;58446;41.490;22.098;2023-11-21T07:02:57;56.07;;;34.03;;
70825;SDS011;58446;41.490;22.098;2023-11-21T07:05:22;60.38;;;36.75;;
70825;SDS011;58446;41.490;22.098;2023-11-21T07:07:49;58.57;;;35.40;;
70825;SDS011;58446;41.490;22.098;2023-11-21T07:10:15;35.08;;;24.02;;
70825;SDS011;58446;41.490;22.098;2023-11-21T07:12:42;45.20;;;28.20;;
70825;SDS011;58446;41.490;22.098;2023-11-21T07:15:07;48.40;;;27.30;;
70825;SDS011;58446;41.490;22.098;2023-11-21T07:17:37;39.25;;;27.10;;
70825;SDS011;58446;41.490;22.098;2023-11-21T07:20:04;38.03;;;26.17;;
70825;SDS011;58446;41.490;22.098;2023-11-21T07:22:31;37.30;;;24.35;;
70825;SDS011;58446;41.490;22.098;2023-11-21T07:24:57;39.50;;;23.77;;
70825;SDS011;58446;41.490;22.098;2023-11-21T07:27:23;34.25;;;23.60;;
70825;SDS011;58446;41.490;22.098;2023-11-21T07:29:48;35.77;;;23.63;;
70825;SDS011;58446;41.490;22.098;2023-11-21T07:32:14;35.67;;;24.02;;
70825;SDS011;58446;41.490;22.098;2023-11-21T07:34:41;33.10;;;22.35;;
70825;SDS011;58446;41.490;22.098;2023-11-21T07:37:07;33.53;;;22.27;;
70825;SDS011;58446;41.490;22.098;2023-11-21T07:39:34;34.95;;;22.98;;
70825;SDS011;58446;41.490;22.098;2023-11-21T07:42:01;34.60;;;23.83;;
70825;SDS011;58446;41.490;22.098;2023-11-21T07:44:29;39.80;;;26.63;;
70825;SDS011;58446;41.490;22.098;2023-11-21T07:46:55;52.23;;;36.67;;
70825;SDS011;58446;41.490;22.098;2023-11-21T07:49:24;48.22;;;32.92;;
70825;SDS011;58446;41.490;22.098;2023-11-21T07:51:50;52.50;;;35.30;;
70825;SDS011;58446;41.490;22.098;2023-11-21T07:54:16;45.83;;;30.13;;
70825;SDS011;58446;41.490;22.098;2023-11-21T07:56:42;42.88;;;30.02;;
70825;SDS011;58446;41.490;22.098;2023-11-21T07:59:07;37.37;;;25.13;;
70825;SDS011;58446;41.490;22.098;2023-11-21T08:01:33;39.03;;;27.48;;
70825;SDS011;58446;41.490;22.098;2023-11-21T08:03:59;40.67;;;26.67;;
70825;SDS011;58446;41.490;22.098;2023-11-21T08:06:29;40.13;;;27.47;;
70825;SDS011;58446;41.490;22.098;2023-11-21T08:08:56;39.58;;;26.23;;
70825;SDS011;58446;41.490;22.098;2023-11-21T08:11:22;41.65;;;25.63;;
70825;SDS011;58446;41.490;22.098;2023-11-21T08:13:47;38.90;;;25.13;;
70825;SDS011;58446;41.490;22.098;2023-11-21T08:16:15;38.53;;;25.55;;
70825;SDS011;58446;41.490;22.098;2023-11-21T08:18:42;38.65;;;25.10;;
70825;SDS011;58446;41.490;22.098;2023-11-21T08:21:08;35.42;;;24.38;;
70825;SDS011;58446;41.490;22.098;2023-11-21T08:23:33;37.57;;;23.30;;
70825;SDS011;58446;41.490;22.098;2023-11-21T08:25:59;36.92;;;22.23;;
70825;SDS011;58446;41.490;22.098;2023-11-21T08:28:27;34.45;;;21.75;;
70825;SDS011;58446;41.490;22.098;2023-11-21T08:30:52;33.30;;;21.27;;
70825;SDS011;58446;41.490;22.098;2023-11-21T08:33:19;32.53;;;21.27;;
70825;SDS011;58446;41.490;22.098;2023-11-21T08:35:45;27.85;;;19.17;;
70825;SDS011;58446;41.490;22.098;2023-11-21T08:38:11;31.30;;;20.50;;
70825;SDS011;58446;41.490;22.098;2023-11-21T08:40:37;32.47;;;21.77;;
70825;SDS011;58446;41.490;22.098;2023-11-21T08:43:03;28.75;;;19.42;;
70825;SDS011;58446;41.490;22.098;2023-11-21T08:45:33;30.13;;;19.02;;
70825;SDS011;58446;41.490;22.098;2023-11-21T08:48:02;30.83;;;19.73;;
70825;SDS011;58446;41.490;22.098;2023-11-21T08:50:28;27.73;;;19.37;;
70825;SDS011;58446;41.490;22.098;2023-11-21T08:52:54;28.70;;;18.98;;
70825;SDS011;58446;41.490;22.098;2023-11-21T08:55:20;30.92;;;21.20;;
70825;SDS011;58446;41.490;22.098;2023-11-21T08:57:46;29.42;;;20.85;;
70825;SDS011;58446;41.490;22.098;2023-11-21T09:00:12;29.57;;;19.80;;
70825;SDS011;58446;41.490;22.098;2023-11-21T09:02:42;35.25;;;20.55;;
70825;SDS011;58446;41.490;22.098;2023-11-21T09:05:12;30.60;;;20.20;;
70825;SDS011;58446;41.490;22.098;2023-11-21T09:07:39;32.10;;;19.90;;
70825;SDS011;58446;41.490;22.098;2023-11-21T09:10:06;33.55;;;22.65;;
70825;SDS011;58446;41.490;22.098;2023-11-21T09:12:34;28.67;;;20.08;;
70825;SDS011;58446;41.490;22.098;2023-11-21T09:15:04;31.10;;;20.38;;
70825;SDS011;58446;41.490;22.098;2023-11-21T09:17:33;29.83;;;19.75;;
70825;SDS011;58446;41.490;22.098;2023-11-21T09:19:59;33.47;;;19.93;;
70825;SDS011;58446;41.490;22.098;2023-11-21T09:22:25;29.10;;;19.40;;
70825;SDS011;58446;41.490;22.098;2023-11-21T09:24:52;26.02;;;18.83;;
70825;SDS011;58446;41.490;22.098;2023-11-21T09:27:18;27.27;;;19.63;;
70825;SDS011;58446;41.490;22.098;2023-11-21T09:29:44;29.63;;;20.10;;
70825;SDS011;58446;41.490;22.098;2023-11-21T09:32:12;36.13;;;20.10;;
70825;SDS011;58446;41.490;22.098;2023-11-21T09:34:39;39.03;;;21.88;;
70825;SDS011;58446;41.490;22.098;2023-11-21T09:37:05;32.00;;;20.53;;
70825;SDS011;58446;41.490;22.098;2023-11-21T09:39:31;34.58;;;21.65;;
70825;SDS011;58446;41.490;22.098;2023-11-21T09:42:04;32.47;;;20.70;;
70825;SDS011;58446;41.490;22.098;2023-11-21T09:45:02;31.52;;;21.30;;
70825;SDS011;58446;41.490;22.098;2023-11-21T09:47:35;33.85;;;21.90;;
70825;SDS011;58446;41.490;22.098;2023-11-21T09:50:03;25.20;;;17.40;;
70825;SDS011;58446;41.490;22.098;2023-11-21T09:52:33;29.98;;;19.13;;
70825;SDS011;58446;41.490;22.098;2023-11-21T09:55:22;27.05;;;18.23;;
70825;SDS011;58446;41.490;22.098;2023-11-21T09:57:51;32.10;;;18.38;;
70825;SDS011;58446;41.490;22.098;2023-11-21T10:00:19;24.88;;;16.73;;
70825;SDS011;58446;41.490;22.098;2023-11-21T10:02:49;21.77;;;15.37;;
70825;SDS011;58446;41.490;22.098;2023-11-21T10:05:15;25.80;;;16.98;;
70825;SDS011;58446;41.490;22.098;2023-11-21T10:07:43;28.98;;;17.70;;
70825;SDS011;58446;41.490;22.098;2023-11-21T10:10:10;21.98;;;14.57;;
70825;SDS011;58446;41.490;22.098;2023-11-21T10:12:37;25.98;;;16.33;;
70825;SDS011;58446;41.490;22.098;2023-11-21T10:15:03;22.17;;;15.63;;
70825;SDS011;58446;41.490;22.098;2023-11-21T10:17:35;24.27;;;15.25;;
70825;SDS011;58446;41.490;22.098;2023-11-21T10:20:08;25.00;;;14.95;;
70825;SDS011;58446;41.490;22.098;2023-11-21T10:22:40;22.80;;;14.80;;
70825;SDS011;58446;41.490;22.098;2023-11-21T10:25:09;19.52;;;13.55;;
70825;SDS011;58446;41.490;22.098;2023-11-21T10:27:38;17.80;;;12.53;;
70825;SDS011;58446;41.490;22.098;2023-11-21T10:30:05;19.33;;;13.82;;
70825;SDS011;58446;41.490;22.098;2023-11-21T10:32:31;21.48;;;14.07;;
70825;SDS011;58446;41.490;22.098;2023-11-21T10:35:01;27.67;;;17.23;;
70825;SDS011;58446;41.490;22.098;2023-11-21T10:37:34;20.17;;;13.15;;
70825;SDS011;58446;41.490;22.098;2023-11-21T10:40:00;22.43;;;13.30;;
70825;SDS011;58446;41.490;22.098;2023-11-21T10:42:26;19.38;;;12.88;;
70825;SDS011;58446;41.490;22.098;2023-11-21T10:44:52;22.40;;;14.48;;
70825;SDS011;58446;41.490;22.098;2023-11-21T10:47:19;20.48;;;13.85;;
70825;SDS011;58446;41.490;22.098;2023-11-21T10:49:47;19.63;;;13.17;;
70825;SDS011;58446;41.490;22.098;2023-11-21T10:52:13;21.05;;;13.50;;
70825;SDS011;58446;41.490;22.098;2023-11-21T10:54:42;27.33;;;17.17;;
70825;SDS011;58446;41.490;22.098;2023-11-21T10:57:10;22.98;;;15.98;;
70825;SDS011;58446;41.490;22.098;2023-11-21T10:59:36;26.08;;;15.60;;
70825;SDS011;58446;41.490;22.098;2023-11-21T11:02:05;27.63;;;17.03;;
70825;SDS011;58446;41.490;22.098;2023-11-21T11:04:47;24.08;;;15.52;;
70825;SDS011;58446;41.490;22.098;2023-11-21T11:07:14;20.40;;;13.40;;
70825;SDS011;58446;41.490;22.098;2023-11-21T11:09:44;22.33;;;15.68;;
70825;SDS011;58446;41.490;22.098;2023-11-21T11:12:14;24.27;;;15.60;;
70825;SDS011;58446;41.490;22.098;2023-11-21T11:14:43;22.92;;;15.40;;
70825;SDS011;58446;41.490;22.098;2023-11-21T11:17:10;22.20;;;14.93;;
70825;SDS011;58446;41.490;22.098;2023-11-21T11:19:36;26.77;;;17.08;;
70825;SDS011;58446;41.490;22.098;2023-11-21T11:28:03;28.10;;;15.90;;
70825;SDS011;58446;41.490;22.098;2023-11-21T11:38:45;23.58;;;15.30;;
70825;SDS011;58446;41.490;22.098;2023-11-21T11:41:12;22.23;;;14.35;;
70825;SDS011;58446;41.490;22.098;2023-11-21T11:43:38;19.80;;;12.23;;
70825;SDS011;58446;41.490;22.098;2023-11-21T11:46:09;20.73;;;13.07;;
70825;SDS011;58446;41.490;22.098;2023-11-21T11:48:39;19.33;;;12.63;;
70825;SDS011;58446;41.490;22.098;2023-11-21T11:51:13;17.20;;;10.93;;
70825;SDS011;58446;41.490;22.098;2023-11-21T11:53:42;15.57;;;10.50;;
70825;SDS011;58446;41.490;22.098;2023-11-21T11:58:52;15.20;;;10.25;;
70825;SDS011;58446;41.490;22.098;2023-11-21T12:01:19;18.50;;;10.57;;
70825;SDS011;58446;41.490;22.098;2023-11-21T12:04:05;17.98;;;11.75;;
70825;SDS011;58446;41.490;22.098;2023-11-21T12:06:42;17.73;;;10.70;;
70825;SDS011;58446;41.490;22.098;2023-11-21T12:09:18;17.48;;;10.52;;
70825;SDS011;58446;41.490;22.098;2023-11-21T12:11:50;18.00;;;10.25;;
70825;SDS011;58446;41.490;22.098;2023-11-21T12:14:16;17.57;;;10.03;;
70825;SDS011;58446;41.490;22.098;2023-11-21T12:16:43;16.10;;;10.77;;
70825;SDS011;58446;41.490;22.098;2023-11-21T12:19:12;20.95;;;11.80;;
70825;SDS011;58446;41.490;22.098;2023-11-21T12:21:38;16.25;;;10.43;;
70825;SDS011;58446;41.490;22.098;2023-11-21T12:24:06;16.30;;;10.23;;
70825;SDS011;58446;41.490;22.098;2023-11-21T12:26:36;13.33;;;9.60;;
70825;SDS011;58446;41.490;22.098;2023-11-21T12:29:02;20.25;;;11.30;;
70825;SDS011;58446;41.490;22.098;2023-11-21T12:31:29;42.25;;;17.38;;
70825;SDS011;58446;41.490;22.098;2023-11-21T12:33:56;40.83;;;21.65;;
70825;SDS011;58446;41.490;22.098;2023-11-21T12:36:22;38.55;;;22.20;;
70825;SDS011;58446;41.490;22.098;2023-11-21T12:38:48;38.13;;;20.47;;
70825;SDS011;58446;41.490;22.098;2023-11-21T12:41:15;27.90;;;16.45;;
70825;SDS011;58446;41.490;22.098;2023-11-21T12:43:42;45.10;;;24.37;;
70825;SDS011;58446;41.490;22.098;2023-11-21T12:46:09;26.85;;;14.85;;
70825;SDS011;58446;41.490;22.098;2023-11-21T12:48:38;32.08;;;18.75;;
70825;SDS011;58446;41.490;22.098;2023-11-21T12:51:07;22.35;;;13.90;;
70825;SDS011;58446;41.490;22.098;2023-11-21T12:53:34;36.05;;;22.95;;
70825;SDS011;58446;41.490;22.098;2023-11-21T12:56:07;23.43;;;15.40;;
70825;SDS011;58446;41.490;22.098;2023-11-21T12:58:36;26.05;;;16.35;;
70825;SDS011;58446;41.490;22.098;2023-11-21T13:01:04;32.85;;;19.50;;
70825;SDS011;58446;41.490;22.098;2023-11-21T13:03:36;28.15;;;15.32;;
70825;SDS011;58446;41.490;22.098;2023-11-21T13:06:03;21.48;;;13.55;;
70825;SDS011;58446;41.490;22.098;2023-11-21T13:08:30;23.07;;;13.77;;
70825;SDS011;58446;41.490;22.098;2023-11-21T13:10:57;19.33;;;11.60;;
70825;SDS011;58446;41.490;22.098;2023-11-21T13:13:24;76.43;;;32.92;;
70825;SDS011;58446;41.490;22.098;2023-11-21T13:15:52;100.80;;;38.92;;
70825;SDS011;58446;41.490;22.098;2023-11-21T13:18:21;23.48;;;13.35;;
70825;SDS011;58446;41.490;22.098;2023-11-21T13:21:03;27.03;;;15.83;;
70825;SDS011;58446;41.490;22.098;2023-11-21T13:23:35;31.48;;;19.83;;
70825;SDS011;58446;41.490;22.098;2023-11-21T13:26:02;21.55;;;12.95;;
70825;SDS011;58446;41.490;22.098;2023-11-21T13:28:32;20.33;;;12.93;;
70825;SDS011;58446;41.490;22.098;2023-11-21T13:30:58;27.08;;;16.73;;
70825;SDS011;58446;41.490;22.098;2023-11-21T13:33:43;27.13;;;16.93;;
70825;SDS011;58446;41.490;22.098;2023-11-21T13:36:15;26.75;;;17.15;;
70825;SDS011;58446;41.490;22.098;2023-11-21T13:38:47;35.28;;;22.42;;
70825;SDS011;58446;41.490;22.098;2023-11-21T13:41:18;43.08;;;29.55;;
70825;SDS011;58446;41.490;22.098;2023-11-21T13:43:43;28.80;;;19.05;;
70825;SDS011;58446;41.490;22.098;2023-11-21T13:46:17;61.00;;;36.50;;
70825;SDS011;58446;41.490;22.098;2023-11-21T13:48:47;50.45;;;29.13;;
70825;SDS011;58446;41.490;22.098;2023-11-21T13:51:21;58.88;;;34.03;;
70825;SDS011;58446;41.490;22.098;2023-11-21T13:54:09;58.65;;;30.92;;
70825;SDS011;58446;41.490;22.098;2023-11-21T13:56:35;57.30;;;32.57;;
70825;SDS011;58446;41.490;22.098;2023-11-21T13:59:02;57.35;;;31.15;;
70825;SDS011;58446;41.490;22.098;2023-11-21T14:01:50;47.03;;;27.58;;
70825;SDS011;58446;41.490;22.098;2023-11-21T14:04:28;53.05;;;26.70;;
70825;SDS011;58446;41.490;22.098;2023-11-21T14:07:13;43.55;;;23.33;;
70825;SDS011;58446;41.490;22.098;2023-11-21T14:09:57;52.93;;;27.67;;
70825;SDS011;58446;41.490;22.098;2023-11-21T14:12:23;66.40;;;34.30;;
70825;SDS011;58446;41.490;22.098;2023-11-21T14:14:49;79.97;;;39.13;;
70825;SDS011;58446;41.490;22.098;2023-11-21T14:17:15;83.50;;;41.40;;
70825;SDS011;58446;41.490;22.098;2023-11-21T14:19:41;77.03;;;39.70;;
70825;SDS011;58446;41.490;22.098;2023-11-21T14:22:09;54.17;;;32.33;;
70825;SDS011;58446;41.490;22.098;2023-11-21T14:24:35;58.13;;;33.95;;
70825;SDS011;58446;41.490;22.098;2023-11-21T14:27:02;58.40;;;35.57;;